Time;durP1;ratioP1;P1;durP2;ratioP2;P2;SDS_P1;SDS_P2;PMS_P1;PMS_P2;Temp;Humidity;BMP_temperature;BMP_pressure;BME280_temperature;BME280_humidity;BME280_pressure;Samples;Min_cycle;Max_cycle;Signal;HPM_P1;HPM_P2
2022/06/06 00:01:53;;;;;;;86.63;41.33;;;15.30;99.90;;;;;;5034384;28;20022;-74
2022/06/06 00:04:20;;;;;;;79.47;41.03;;;15.20;99.90;;;;;;5034229;28;20030;-75
2022/06/06 00:06:47;;;;;;;74.18;39.67;;;15.20;99.90;;;;;;5034268;28;20021;-73
2022/06/06 00:09:14;;;;;;;70.55;38.45;;;15.20;99.90;;;;;;5032857;28;20014;-72
2022/06/06 00:11:41;;;;;;;71.50;38.63;;;15.10;99.90;;;;;;5034146;28;20030;-75
2022/06/06 00:14:08;;;;;;;73.70;38.40;;;15.10;99.90;;;;;;5034137;28;20090;-74
2022/06/06 00:16:35;;;;;;;63.38;34.63;;;15.10;99.90;;;;;;5034067;28;20060;-74
2022/06/06 00:19:04;;;;;;;61.08;32.25;;;15.10;99.90;;;;;;5016693;28;20036;-73
2022/06/06 00:21:31;;;;;;;62.97;33.60;;;15.10;99.90;;;;;;5016321;28;20056;-74
2022/06/06 00:23:59;;;;;;;59.30;31.70;;;15.00;99.90;;;;;;5016264;28;20030;-75
2022/06/06 00:26:30;;;;;;;59.80;31.85;;;15.10;99.90;;;;;;5032790;28;20017;-73
2022/06/06 00:28:56;;;;;;;63.35;34.30;;;15.10;99.90;;;;;;5016078;28;20036;-73
2022/06/06 00:36:50;;;;;;;51.85;26.92;;;15.10;99.90;;;;;;5034101;28;20056;-72
2022/06/06 00:39:18;;;;;;;48.85;25.65;;;15.10;99.90;;;;;;5033742;28;20473;-73
2022/06/06 00:41:46;;;;;;;45.03;23.73;;;15.10;99.90;;;;;;5032415;28;20120;-73
2022/06/06 00:44:18;;;;;;;46.10;24.35;;;15.00;99.90;;;;;;5033697;28;20438;-74
2022/06/06 00:46:54;;;;;;;47.17;24.80;;;15.00;99.90;;;;;;5033645;28;20497;-75
2022/06/06 00:49:45;;;;;;;42.50;24.63;;;15.00;99.90;;;;;;5033663;28;20026;-74
2022/06/06 00:52:23;;;;;;;42.63;23.40;;;15.00;99.90;;;;;;5033601;28;20017;-73
2022/06/06 00:54:51;;;;;;;45.10;22.92;;;15.00;99.90;;;;;;5033506;28;20053;-73
2022/06/06 00:57:22;;;;;;;47.08;24.10;;;15.00;99.90;;;;;;5032166;28;20040;-72
2022/06/06 00:59:50;;;;;;;47.45;23.65;;;15.10;99.90;;;;;;5028703;28;20050;-72
2022/06/06 01:02:17;;;;;;;43.33;23.35;;;15.00;99.90;;;;;;5012620;28;20038;-73
2022/06/06 01:04:43;;;;;;;45.88;23.45;;;15.10;99.90;;;;;;5013461;28;20474;-72
2022/06/06 01:07:10;;;;;;;45.00;23.63;;;15.10;99.90;;;;;;5012404;28;20033;-74
2022/06/06 01:09:39;;;;;;;46.35;24.52;;;15.10;99.90;;;;;;5028776;28;20025;-75
2022/06/06 01:12:10;;;;;;;44.72;23.60;;;15.10;99.90;;;;;;5013503;28;20026;-72
2022/06/06 01:14:39;;;;;;;41.65;21.15;;;15.10;99.90;;;;;;5013555;28;20041;-73
2022/06/06 01:17:13;;;;;;;45.95;23.33;;;15.10;99.90;;;;;;5013509;28;20041;-73
2022/06/06 01:20:09;;;;;;;37.92;21.70;;;15.10;99.90;;;;;;5013457;28;20374;-73
2022/06/06 01:23:19;;;;;;;40.75;21.00;;;15.10;99.90;;;;;;5008923;28;20082;-72
2022/06/06 01:25:50;;;;;;;38.28;20.95;;;15.10;99.90;;;;;;5011211;28;20045;-73
2022/06/06 01:28:38;;;;;;;38.47;21.00;;;15.10;99.90;;;;;;5013346;28;20037;-75
2022/06/06 01:31:11;;;;;;;36.85;20.25;;;15.10;99.90;;;;;;5028508;28;20037;-73
2022/06/06 01:33:59;;;;;;;37.83;20.83;;;15.10;99.90;;;;;;5028460;28;20025;-74
2022/06/06 01:36:29;;;;;;;45.50;21.40;;;15.10;99.90;;;;;;5028399;28;20026;-73
2022/06/06 01:38:56;;;;;;;45.95;20.50;;;15.10;99.90;;;;;;5013175;28;20033;-75
2022/06/06 01:41:39;;;;;;;42.38;21.98;;;15.10;99.90;;;;;;5027093;28;20033;-72
2022/06/06 01:44:15;;;;;;;41.30;22.00;;;15.00;99.90;;;;;;5003487;28;20061;-73
2022/06/06 01:46:42;;;;;;;34.92;20.13;;;15.00;99.90;;;;;;5012015;28;20134;-73
2022/06/06 01:49:11;;;;;;;36.78;21.35;;;15.00;99.90;;;;;;5013178;28;20022;-75
2022/06/06 01:51:36;;;;;;;40.55;20.52;;;15.00;99.90;;;;;;5008881;28;20425;-74
2022/06/06 01:54:02;;;;;;;40.05;20.70;;;15.00;99.90;;;;;;5012970;28;20026;-72
2022/06/06 01:56:35;;;;;;;35.80;18.05;;;14.90;99.90;;;;;;5012572;28;20480;-73
2022/06/06 01:59:01;;;;;;;30.75;18.23;;;15.00;99.90;;;;;;5020279;28;20097;-72
2022/06/06 02:01:27;;;;;;;37.35;19.88;;;14.90;99.90;;;;;;5032905;28;20381;-73
2022/06/06 02:03:53;;;;;;;35.10;17.98;;;15.00;99.90;;;;;;5032578;28;20034;-72
2022/06/06 02:06:19;;;;;;;38.58;20.35;;;15.00;99.90;;;;;;5015108;28;20170;-73
2022/06/06 02:08:44;;;;;;;35.90;19.10;;;15.00;99.90;;;;;;5032772;28;20500;-72
2022/06/06 02:11:11;;;;;;;33.00;19.10;;;15.00;99.90;;;;;;5035824;28;20385;-73
2022/06/06 02:13:37;;;;;;;38.83;21.13;;;15.00;99.90;;;;;;5018863;28;20037;-72
2022/06/06 02:16:03;;;;;;;48.03;23.10;;;15.10;99.90;;;;;;5036334;28;20036;-73
2022/06/06 02:18:29;;;;;;;46.92;23.45;;;15.00;99.90;;;;;;5036379;28;20428;-74
2022/06/06 02:20:55;;;;;;;45.45;21.60;;;15.00;99.90;;;;;;5036391;28;20032;-74
2022/06/06 02:23:22;;;;;;;49.47;24.27;;;15.10;99.90;;;;;;5018515;28;20112;-72
2022/06/06 02:25:48;;;;;;;46.15;22.50;;;15.00;99.90;;;;;;5036269;28;20017;-73
2022/06/06 02:28:15;;;;;;;41.50;22.45;;;15.10;99.90;;;;;;5036196;28;20029;-72
2022/06/06 02:30:42;;;;;;;46.80;23.52;;;15.10;99.90;;;;;;5036225;28;20018;-72
2022/06/06 02:33:07;;;;;;;46.88;24.58;;;15.10;99.90;;;;;;5036062;28;20029;-73
2022/06/06 02:35:41;;;;;;;51.25;27.05;;;15.10;99.90;;;;;;5036134;28;20045;-73
2022/06/06 02:38:09;;;;;;;44.20;25.17;;;15.20;99.90;;;;;;5035935;28;20022;-72
2022/06/06 02:40:35;;;;;;;57.60;27.50;;;15.20;99.90;;;;;;5035921;28;20030;-73
2022/06/06 02:43:01;;;;;;;51.92;27.92;;;15.20;99.90;;;;;;5035887;28;20546;-73
2022/06/06 02:45:28;;;;;;;50.90;26.33;;;15.20;99.90;;;;;;5035950;28;20446;-72
2022/06/06 02:47:57;;;;;;;50.15;26.95;;;15.20;99.90;;;;;;5018335;28;20030;-73
2022/06/06 02:50:26;;;;;;;51.08;26.63;;;15.30;99.90;;;;;;5018083;28;20028;-72
2022/06/06 02:52:53;;;;;;;54.55;29.08;;;15.30;99.90;;;;;;5035772;28;20469;-73
2022/06/06 02:55:19;;;;;;;51.38;26.55;;;15.30;99.90;;;;;;5017966;28;20033;-73
2022/06/06 02:57:51;;;;;;;47.85;25.60;;;15.30;99.90;;;;;;5035768;28;20037;-73
2022/06/06 03:00:25;;;;;;;53.20;27.23;;;15.30;99.90;;;;;;5017638;28;20045;-73
2022/06/06 03:02:51;;;;;;;50.05;26.60;;;15.40;99.90;;;;;;5035550;28;20026;-72
2022/06/06 03:05:17;;;;;;;47.65;25.58;;;15.40;99.90;;;;;;5035453;28;20037;-72
2022/06/06 03:07:46;;;;;;;52.33;26.17;;;15.30;99.90;;;;;;5035422;28;20049;-74
2022/06/06 03:10:27;;;;;;;51.78;27.30;;;15.40;99.90;;;;;;5035382;28;20083;-74
2022/06/06 03:13:17;;;;;;;51.05;26.58;;;15.40;99.90;;;;;;5017562;28;20021;-72
2022/06/06 03:22:40;;;;;;;47.92;25.55;;;15.40;99.90;;;;;;5034158;28;20036;-72
2022/06/06 03:25:12;;;;;;;49.40;26.40;;;15.30;99.90;;;;;;5035035;28;20033;-72
2022/06/06 03:28:02;;;;;;;48.33;25.98;;;15.40;99.90;;;;;;5035065;28;20512;-73
2022/06/06 03:30:47;;;;;;;56.08;28.52;;;15.30;99.90;;;;;;5017240;28;20076;-73
2022/06/06 03:33:29;;;;;;;48.53;24.90;;;15.40;99.90;;;;;;5034973;28;20053;-73
2022/06/06 03:35:57;;;;;;;49.00;26.77;;;15.40;99.90;;;;;;5034929;28;20100;-73
2022/06/06 03:38:40;;;;;;;53.35;25.88;;;15.30;99.90;;;;;;5034944;28;20025;-73
2022/06/06 03:41:30;;;;;;;50.75;25.52;;;15.40;99.90;;;;;;5034892;28;20028;-72
2022/06/06 03:43:56;;;;;;;51.30;25.08;;;15.40;99.90;;;;;;5034654;28;20025;-72
2022/06/06 03:46:26;;;;;;;45.03;23.40;;;15.40;99.90;;;;;;5034756;28;20029;-72
2022/06/06 03:49:11;;;;;;;45.83;23.67;;;15.40;99.90;;;;;;5017080;28;20017;-72
2022/06/06 03:51:49;;;;;;;41.20;21.80;;;15.40;99.90;;;;;;5034607;28;20021;-73
2022/06/06 03:54:43;;;;;;;45.03;22.17;;;15.40;99.90;;;;;;5034610;28;20025;-72
2022/06/06 03:57:17;;;;;;;43.10;21.60;;;15.40;99.90;;;;;;5034403;28;20025;-73
2022/06/06 03:59:50;;;;;;;46.53;23.05;;;15.40;99.90;;;;;;5016511;28;20041;-72
2022/06/06 04:02:25;;;;;;;45.65;23.67;;;15.40;99.90;;;;;;5034548;28;20029;-74
2022/06/06 04:04:52;;;;;;;43.83;22.58;;;15.40;99.90;;;;;;5034285;28;20037;-72
2022/06/06 04:07:17;;;;;;;39.53;20.30;;;15.40;99.90;;;;;;5034292;28;20029;-72
2022/06/06 04:09:45;;;;;;;35.28;20.08;;;15.40;99.90;;;;;;5034193;28;20018;-73
2022/06/06 04:12:25;;;;;;;45.58;24.63;;;15.40;99.90;;;;;;5034154;28;20052;-75
2022/06/06 04:14:53;;;;;;;43.38;22.38;;;15.40;99.90;;;;;;5015281;28;20026;-75
2022/06/06 04:17:37;;;;;;;43.85;23.70;;;15.40;99.90;;;;;;5006977;28;20040;-73
2022/06/06 04:20:09;;;;;;;44.13;24.70;;;15.50;99.90;;;;;;5034145;28;20026;-71
2022/06/06 04:22:45;;;;;;;50.35;27.20;;;15.50;99.90;;;;;;5033756;28;20112;-72
2022/06/06 04:25:23;;;;;;;54.45;28.13;;;15.50;99.90;;;;;;5033991;28;20029;-73
2022/06/06 04:28:13;;;;;;;66.13;33.13;;;15.50;99.90;;;;;;5033919;28;20528;-73
2022/06/06 04:30:47;;;;;;;53.28;28.73;;;15.40;99.90;;;;;;5033857;28;20548;-73
2022/06/06 04:33:38;;;;;;;60.00;31.25;;;15.50;99.90;;;;;;5015923;28;20021;-73
2022/06/06 04:36:19;;;;;;;66.72;35.65;;;15.50;99.90;;;;;;5033779;28;20517;-72
2022/06/06 04:39:03;;;;;;;68.38;37.35;;;15.50;99.90;;;;;;5033847;28;20025;-73
2022/06/06 04:41:43;;;;;;;56.13;33.97;;;15.50;99.90;;;;;;5033660;28;20029;-72
2022/06/06 04:44:31;;;;;;;59.30;34.10;;;15.50;99.90;;;;;;5015935;28;20030;-74
2022/06/06 04:47:19;;;;;;;56.00;31.95;;;15.50;99.90;;;;;;5033578;28;20021;-73
2022/06/06 04:49:46;;;;;;;53.20;31.48;;;15.50;99.90;;;;;;5015780;28;20076;-74
2022/06/06 04:52:13;;;;;;;49.53;31.20;;;15.50;99.90;;;;;;5032369;28;20041;-73
2022/06/06 04:54:41;;;;;;;42.20;27.58;;;15.40;99.90;;;;;;5033544;28;20502;-72
2022/06/06 04:57:09;;;;;;;49.08;29.17;;;15.40;99.90;;;;;;5033512;28;20027;-74
2022/06/06 04:59:37;;;;;;;49.63;29.25;;;15.50;99.90;;;;;;5021291;28;20046;-73
2022/06/06 05:02:04;;;;;;;44.83;29.10;;;15.50;99.90;;;;;;4996105;28;20069;-74
2022/06/06 05:04:30;;;;;;;44.70;28.00;;;15.50;99.90;;;;;;5013589;28;20044;-73
2022/06/06 05:07:13;;;;;;;50.90;29.45;;;15.40;99.90;;;;;;5013554;28;20029;-73
2022/06/06 05:09:49;;;;;;;49.20;30.83;;;15.50;99.90;;;;;;5013443;28;20367;-73
2022/06/06 05:12:52;;;;;;;47.25;28.92;;;15.50;99.90;;;;;;5009004;28;20057;-72
2022/06/06 05:15:24;;;;;;;44.28;28.65;;;15.40;99.90;;;;;;5013452;28;20030;-73
2022/06/06 05:18:14;;;;;;;45.78;28.38;;;15.40;99.90;;;;;;4996183;28;20038;-73
2022/06/06 05:21:08;;;;;;;39.28;27.10;;;15.40;99.90;;;;;;5013880;28;20040;-73
2022/06/06 05:23:58;;;;;;;41.95;26.67;;;15.40;99.90;;;;;;4996401;28;20030;-74
2022/06/06 05:26:50;;;;;;;46.83;28.58;;;15.30;99.90;;;;;;5013565;28;20493;-74
2022/06/06 05:29:33;;;;;;;39.42;26.30;;;15.40;99.90;;;;;;4998015;28;20447;-74
2022/06/06 05:32:04;;;;;;;38.60;22.33;;;15.40;99.90;;;;;;5013440;28;20130;-73
2022/06/06 05:34:49;;;;;;;38.45;24.45;;;15.40;99.90;;;;;;5013535;28;20108;-73
2022/06/06 05:37:41;;;;;;;32.97;21.65;;;15.40;99.90;;;;;;4995680;28;20049;-73
2022/06/06 05:40:39;;;;;;;30.13;19.73;;;15.40;99.90;;;;;;5012340;28;20033;-73
2022/06/06 05:43:24;;;;;;;31.42;21.33;;;15.40;99.90;;;;;;5000644;28;20022;-74
2022/06/06 05:46:11;;;;;;;29.75;20.13;;;15.40;99.90;;;;;;5015625;28;20026;-73
2022/06/06 05:49:12;;;;;;;28.42;18.13;;;15.40;99.90;;;;;;4999577;28;20030;-74
2022/06/06 05:51:43;;;;;;;26.50;16.25;;;15.50;99.90;;;;;;4999506;28;20034;-74
2022/06/06 05:54:27;;;;;;;26.15;15.30;;;15.50;99.90;;;;;;4999449;28;20030;-74
2022/06/06 05:57:26;;;;;;;24.58;15.07;;;15.50;99.90;;;;;;4999365;28;20467;-74
2022/06/06 06:00:16;;;;;;;22.38;14.68;;;15.50;99.90;;;;;;5010094;28;20037;-72
2022/06/06 06:02:54;;;;;;;19.00;13.23;;;15.50;99.90;;;;;;5015676;28;20033;-73
2022/06/06 06:05:40;;;;;;;18.27;12.05;;;15.50;99.90;;;;;;5015553;28;20476;-73
2022/06/06 06:08:26;;;;;;;20.55;12.85;;;15.50;99.90;;;;;;4999510;28;20030;-73
2022/06/06 06:11:10;;;;;;;19.92;12.35;;;15.50;99.80;;;;;;5016327;28;20034;-73
2022/06/06 06:14:12;;;;;;;22.17;11.85;;;15.60;99.70;;;;;;5015438;28;20026;-74
2022/06/06 06:16:45;;;;;;;20.35;10.38;;;15.60;99.50;;;;;;5016541;28;20025;-73
2022/06/06 06:19:20;;;;;;;18.15;10.95;;;15.60;99.20;;;;;;5016550;28;20418;-73
2022/06/06 06:21:56;;;;;;;16.85;10.68;;;15.50;99.20;;;;;;4998877;28;20497;-72
2022/06/06 06:24:35;;;;;;;18.40;10.82;;;15.60;99.40;;;;;;5016368;28;20030;-73
2022/06/06 06:27:03;;;;;;;17.92;10.77;;;15.60;99.00;;;;;;5016444;28;20026;-74
2022/06/06 06:29:30;;;;;;;17.08;9.90;;;15.60;98.80;;;;;;5014943;28;20030;-75
2022/06/06 06:32:26;;;;;;;18.52;11.02;;;15.60;98.60;;;;;;4994126;28;20140;-73
2022/06/06 06:35:12;;;;;;;17.58;9.85;;;15.50;98.60;;;;;;5013214;28;20397;-73
2022/06/06 06:38:12;;;;;;;18.55;11.52;;;15.50;98.70;;;;;;5006954;28;20033;-73
2022/06/06 06:40:56;;;;;;;17.33;9.80;;;15.60;98.80;;;;;;5015959;28;20065;-72
2022/06/06 06:44:01;;;;;;;13.98;8.88;;;15.60;98.90;;;;;;5015282;28;20041;-74
2022/06/06 06:46:33;;;;;;;15.35;9.48;;;15.70;98.90;;;;;;5014921;28;20029;-75
2022/06/06 06:49:31;;;;;;;16.35;9.55;;;15.80;99.00;;;;;;5016035;28;20061;-73
2022/06/06 06:52:15;;;;;;;14.68;9.00;;;15.90;98.90;;;;;;5014736;28;20028;-74
2022/06/06 06:55:14;;;;;;;16.45;8.63;;;16.00;98.70;;;;;;5015747;28;20048;-73
2022/06/06 06:58:01;;;;;;;12.90;7.45;;;16.00;98.30;;;;;;5015468;28;20041;-74
2022/06/06 07:00:44;;;;;;;13.45;7.38;;;16.10;98.40;;;;;;5034758;28;20049;-74
2022/06/06 07:09:19;;;;;;;12.82;6.90;;;16.10;96.70;;;;;;5035478;28;20103;-74
2022/06/06 07:12:10;;;;;;;12.32;7.95;;;16.00;96.40;;;;;;5035359;28;20021;-73
2022/06/06 07:14:49;;;;;;;13.35;7.30;;;16.00;96.60;;;;;;5017639;28;20033;-75
2022/06/06 07:17:17;;;;;;;13.05;7.05;;;16.10;96.70;;;;;;5034018;28;20120;-74
2022/06/06 07:20:05;;;;;;;11.70;7.88;;;16.10;97.00;;;;;;5035423;28;20100;-76
2022/06/06 07:25:22;;;;;;;14.23;8.07;;;16.10;96.30;;;;;;5035758;28;20504;-74
2022/06/06 07:27:48;;;;;;;16.00;8.55;;;16.10;96.20;;;;;;5035310;28;20017;-74
2022/06/06 07:30:14;;;;;;;14.30;8.15;;;16.10;95.70;;;;;;5035447;28;20473;-74
2022/06/06 07:33:02;;;;;;;11.23;7.68;;;16.10;95.90;;;;;;5015293;28;20025;-74
2022/06/06 07:35:47;;;;;;;12.40;7.78;;;16.10;95.80;;;;;;5014807;28;20029;-72
2022/06/06 07:38:38;;;;;;;10.13;6.45;;;16.20;95.80;;;;;;5034509;28;20026;-73
2022/06/06 07:41:25;;;;;;;12.80;6.10;;;16.20;95.90;;;;;;5034614;28;20112;-75
2022/06/06 07:44:31;;;;;;;10.80;5.47;;;16.20;95.70;;;;;;5034677;28;20033;-76
2022/06/06 07:47:07;;;;;;;10.48;5.40;;;16.20;95.30;;;;;;5034835;28;20076;-74
2022/06/06 07:49:43;;;;;;;10.60;5.07;;;16.20;94.80;;;;;;5034561;28;20064;-71
2022/06/06 07:52:14;;;;;;;8.73;3.53;;;16.20;95.00;;;;;;5034693;28;20361;-75
2022/06/06 07:54:45;;;;;;;9.45;4.13;;;16.30;95.20;;;;;;5034699;28;20075;-74
2022/06/06 07:57:36;;;;;;;6.85;2.97;;;16.30;94.40;;;;;;5016790;28;20030;-82
2022/06/06 08:00:08;;;;;;;6.95;2.53;;;16.30;94.00;;;;;;5034476;28;20033;-80
2022/06/06 08:02:49;;;;;;;8.35;2.83;;;16.40;94.10;;;;;;5016677;28;20374;-80
2022/06/06 08:05:42;;;;;;;6.82;2.35;;;16.50;93.80;;;;;;5016618;28;20029;-81
2022/06/06 08:08:35;;;;;;;4.50;1.83;;;16.60;92.90;;;;;;5033844;28;20071;-80
2022/06/06 08:11:19;;;;;;;4.07;1.15;;;16.60;91.70;;;;;;5034420;28;20018;-81
2022/06/06 08:13:59;;;;;;;4.50;1.38;;;16.80;91.60;;;;;;5034232;28;20028;-79
2022/06/06 08:16:45;;;;;;;4.47;1.10;;;16.80;90.90;;;;;;5016528;28;20025;-79
2022/06/06 08:19:10;;;;;;;2.83;1.25;;;16.90;91.00;;;;;;5034198;28;20103;-79
2022/06/06 08:21:39;;;;;;;6.10;1.10;;;17.00;90.00;;;;;;5034102;28;20525;-81
2022/06/06 08:24:15;;;;;;;6.18;1.33;;;17.00;90.10;;;;;;5033902;28;20025;-81
2022/06/06 08:26:43;;;;;;;5.18;1.67;;;17.00;89.30;;;;;;5016299;28;20024;-79
2022/06/06 08:29:10;;;;;;;3.45;1.10;;;17.00;89.60;;;;;;5032624;28;20527;-79
2022/06/06 08:31:36;;;;;;;2.53;1.10;;;17.00;89.40;;;;;;5016050;28;20064;-80
2022/06/06 08:34:02;;;;;;;3.22;1.23;;;17.10;89.50;;;;;;5032646;28;20053;-79
2022/06/06 08:36:46;;;;;;;7.45;1.88;;;17.00;88.30;;;;;;5016271;28;20029;-79
2022/06/06 08:39:30;;;;;;;;;;;16.90;87.90;;;;;;5034423;28;20029;-83
2022/06/06 08:42:10;;;;;;;3.58;1.58;;;16.90;87.90;;;;;;5033769;28;20327;-81
2022/06/06 08:44:36;;;;;;;6.32;1.52;;;16.80;88.70;;;;;;5016015;28;20397;-80
2022/06/06 08:47:21;;;;;;;6.50;2.03;;;16.80;89.30;;;;;;5033647;28;20025;-79
2022/06/06 08:52:52;;;;;;;3.97;1.27;;;16.80;90.00;;;;;;5033669;28;20031;-80
2022/06/06 08:55:26;;;;;;;3.88;1.30;;;16.90;90.00;;;;;;5015805;28;20099;-81
2022/06/06 08:58:27;;;;;;;6.13;1.40;;;17.00;89.70;;;;;;5033584;28;20033;-80
2022/06/06 09:01:39;;;;;;;3.78;1.00;;;17.00;89.70;;;;;;5031605;28;20050;-83
2022/06/06 09:04:23;;;;;;;4.28;1.00;;;17.10;88.00;;;;;;5034114;28;20112;-80
2022/06/06 09:07:07;;;;;;;3.63;1.00;;;17.10;85.80;;;;;;5015714;28;20056;-80
2022/06/06 09:10:11;;;;;;;2.30;0.75;;;17.20;87.00;;;;;;5015924;28;20029;-80
2022/06/06 09:13:08;;;;;;;3.95;1.00;;;17.30;86.40;;;;;;5033750;28;20541;-80
2022/06/06 09:16:04;;;;;;;3.22;0.73;;;17.40;84.60;;;;;;5033491;28;20037;-80
2022/06/06 09:18:47;;;;;;;2.80;0.82;;;17.50;84.70;;;;;;5015679;28;20120;-80
2022/06/06 09:21:18;;;;;;;3.85;0.93;;;17.70;84.60;;;;;;5033568;28;20473;-79
2022/06/06 09:24:08;;;;;;;7.18;0.88;;;17.70;83.30;;;;;;5033390;28;20087;-81
2022/06/06 09:27:06;;;;;;;2.70;0.70;;;17.80;83.30;;;;;;5015625;28;20112;-81
2022/06/06 09:29:37;;;;;;;3.97;0.77;;;17.90;81.50;;;;;;5015668;28;20580;-82
2022/06/06 09:32:15;;;;;;;6.32;0.90;;;18.00;80.50;;;;;;5016068;28;20139;-84
2022/06/06 09:34:41;;;;;;;4.95;0.70;;;18.00;80.10;;;;;;5028430;28;20036;-80
2022/06/06 09:37:33;;;;;;;3.75;0.73;;;18.00;80.00;;;;;;5026917;28;20030;-82
2022/06/06 09:40:36;;;;;;;2.63;0.75;;;18.00;79.70;;;;;;5032712;28;20604;-82
2022/06/06 09:43:13;;;;;;;4.90;1.00;;;18.10;80.60;;;;;;4991484;28;20045;-80
2022/06/06 09:45:51;;;;;;;3.30;0.80;;;18.20;81.30;;;;;;5025308;28;20128;-80
2022/06/06 09:48:39;;;;;;;2.83;0.95;;;18.20;81.80;;;;;;5013197;28;20029;-81
2022/06/06 09:51:25;;;;;;;3.28;0.75;;;18.40;80.30;;;;;;4995524;28;20057;-79
2022/06/06 10:00:29;;;;;;;2.47;0.80;;;18.40;78.60;;;;;;5013237;28;20057;-80
2022/06/06 10:02:58;;;;;;;3.63;0.70;;;18.60;79.40;;;;;;5013314;28;20358;-79
2022/06/06 10:06:01;;;;;;;2.55;0.88;;;18.70;79.60;;;;;;5013402;28;20033;-82
2022/06/06 10:08:35;;;;;;;1.67;0.80;;;18.90;79.00;;;;;;5013330;28;20030;-79
2022/06/06 10:11:19;;;;;;;3.88;0.95;;;19.10;78.90;;;;;;5013258;28;20022;-80
2022/06/06 10:14:01;;;;;;;2.85;0.90;;;19.20;75.80;;;;;;5013224;28;20025;-80
2022/06/06 10:16:48;;;;;;;3.65;0.88;;;19.30;76.20;;;;;;5013233;28;20457;-79
2022/06/06 10:19:53;;;;;;;1.85;0.90;;;19.40;75.20;;;;;;5013177;28;20025;-78
2022/06/06 10:22:53;;;;;;;3.13;1.00;;;19.40;75.20;;;;;;5013179;28;20041;-81
2022/06/06 10:25:31;;;;;;;3.58;1.15;;;19.30;75.30;;;;;;4995676;28;20026;-80
2022/06/06 10:28:27;;;;;;;4.63;1.38;;;19.20;74.30;;;;;;4995507;28;20116;-78
2022/06/06 10:31:17;;;;;;;4.32;0.90;;;19.20;74.60;;;;;;5016843;28;20033;-83
2022/06/06 10:34:15;;;;;;;2.10;0.75;;;19.10;73.30;;;;;;5016535;28;20018;-81
2022/06/06 10:36:44;;;;;;;4.13;1.15;;;19.10;73.40;;;;;;5027678;28;20477;-83
2022/06/06 10:39:12;;;;;;;1.45;0.77;;;19.00;73.60;;;;;;5035890;28;20496;-82
2022/06/06 10:41:44;;;;;;;3.25;1.35;;;18.90;73.90;;;;;;5017882;28;20025;-81
2022/06/06 10:44:36;;;;;;;4.00;1.17;;;19.00;73.90;;;;;;5036157;28;20109;-82
2022/06/06 10:47:30;;;;;;;2.85;0.93;;;19.00;74.40;;;;;;5036002;28;20017;-81
2022/06/06 10:50:16;;;;;;;2.00;0.90;;;19.20;74.70;;;;;;5035858;28;20033;-82
2022/06/06 10:53:15;;;;;;;6.05;1.20;;;19.30;74.10;;;;;;5035894;28;20144;-81
2022/06/06 10:56:02;;;;;;;3.40;1.20;;;19.30;74.00;;;;;;5018082;28;20030;-84
2022/06/06 10:58:49;;;;;;;2.00;0.93;;;19.20;73.10;;;;;;5018006;28;20064;-80
2022/06/06 11:01:27;;;;;;;6.28;1.67;;;19.10;73.60;;;;;;5017896;28;20033;-80
2022/06/06 11:04:22;;;;;;;2.85;1.05;;;19.00;73.30;;;;;;5035576;28;20048;-82
2022/06/06 11:06:51;;;;;;;4.50;1.85;;;18.90;74.60;;;;;;5017761;28;20027;-80
2022/06/06 11:10:01;;;;;;;4.80;1.80;;;18.90;75.20;;;;;;5017757;28;20025;-82
2022/06/06 11:12:44;;;;;;;4.13;1.77;;;18.90;75.40;;;;;;4977527;28;20023;-80
2022/06/06 11:15:10;;;;;;;4.60;1.23;;;18.90;76.10;;;;;;4986901;28;20045;-82
2022/06/06 11:18:09;;;;;;;4.68;1.45;;;19.00;76.20;;;;;;4998078;28;20054;-80
2022/06/06 11:20:59;;;;;;;1.95;1.00;;;19.40;76.40;;;;;;5015415;28;20037;-80
2022/06/06 11:23:24;;;;;;;3.85;0.90;;;20.20;76.40;;;;;;5015616;28;20032;-82
2022/06/06 11:26:24;;;;;;;5.65;0.73;;;21.00;75.50;;;;;;5015653;28;20116;-82
2022/06/06 11:28:52;;;;;;;2.80;0.60;;;22.10;74.50;;;;;;5015931;28;20577;-81
2022/06/06 11:31:24;;;;;;;1.88;0.70;;;23.00;71.70;;;;;;5015529;28;20022;-82
2022/06/06 11:34:08;;;;;;;1.27;0.50;;;23.70;68.30;;;;;;5015234;28;20105;-81
2022/06/06 11:36:46;;;;;;;2.13;0.50;;;24.40;66.50;;;;;;4998019;28;20343;-82
2022/06/06 11:39:38;;;;;;;2.15;0.60;;;24.80;62.50;;;;;;5015544;28;20037;-80
2022/06/06 11:42:28;;;;;;;1.90;0.50;;;24.70;61.00;;;;;;5014281;28;20034;-82
2022/06/06 11:45:02;;;;;;;1.60;0.50;;;24.50;58.30;;;;;;5015236;28;20100;-83
2022/06/06 11:47:46;;;;;;;2.08;0.43;;;24.30;58.00;;;;;;5015778;28;20025;-81
2022/06/06 11:50:54;;;;;;;1.80;0.55;;;24.20;58.80;;;;;;5015114;28;20438;-82
2022/06/06 11:54:06;;;;;;;2.72;0.57;;;24.10;59.20;;;;;;5013852;28;20042;-81
2022/06/06 11:57:08;;;;;;;3.65;0.60;;;23.90;58.40;;;;;;4998979;28;20076;-82
2022/06/06 11:59:36;;;;;;;3.00;0.65;;;23.50;58.60;;;;;;5029365;28;20046;-81
2022/06/06 12:02:39;;;;;;;2.80;0.65;;;23.00;59.50;;;;;;5017612;28;20040;-82
2022/06/06 12:05:30;;;;;;;2.45;0.50;;;22.60;60.80;;;;;;5014915;28;20077;-82
2022/06/06 12:08:07;;;;;;;4.97;0.70;;;22.10;62.00;;;;;;5014888;28;20030;-81
2022/06/06 12:11:04;;;;;;;2.92;0.65;;;21.80;62.70;;;;;;5014790;28;20137;-82
2022/06/06 12:13:41;;;;;;;7.70;0.88;;;21.40;63.20;;;;;;5014777;28;20037;-81
2022/06/06 12:16:24;;;;;;;2.58;0.60;;;21.10;64.10;;;;;;5014986;28;20021;-83
2022/06/06 12:19:09;;;;;;;3.40;1.20;;;20.90;64.90;;;;;;4997536;28;20479;-81
2022/06/06 12:21:57;;;;;;;3.35;0.63;;;20.90;65.20;;;;;;5009396;28;20079;-83
2022/06/06 12:24:53;;;;;;;3.83;0.90;;;21.00;65.50;;;;;;5034383;28;20141;-83
2022/06/06 12:27:50;;;;;;;3.03;0.77;;;20.90;65.90;;;;;;5016293;28;20132;-82
2022/06/06 12:30:25;;;;;;;3.13;0.98;;;20.70;66.10;;;;;;5034477;28;20018;-81
2022/06/06 12:33:02;;;;;;;3.45;1.13;;;20.40;68.30;;;;;;5016838;28;20026;-82
2022/06/06 12:35:35;;;;;;;3.58;1.20;;;19.90;70.90;;;;;;5016350;28;20029;-81
2022/06/06 12:38:29;;;;;;;3.15;0.95;;;19.50;71.80;;;;;;5016367;28;20056;-82
2022/06/06 12:41:03;;;;;;;4.60;1.60;;;19.20;73.50;;;;;;5016374;28;20477;-84
2022/06/06 12:44:10;;;;;;;3.95;1.48;;;18.90;75.70;;;;;;5034010;28;20155;-82
2022/06/06 12:47:02;;;;;;;4.32;1.00;;;18.50;80.20;;;;;;5031891;28;20046;-83
2022/06/06 12:49:58;;;;;;;3.92;0.90;;;18.00;82.40;;;;;;5016588;28;20057;-83
2022/06/06 12:52:55;;;;;;;3.45;1.05;;;17.80;83.80;;;;;;5016192;28;20021;-85
2022/06/06 12:55:32;;;;;;;3.33;1.20;;;17.60;84.60;;;;;;5015829;28;20454;-84
2022/06/06 12:58:16;;;;;;;2.13;0.80;;;17.60;85.00;;;;;;5033702;28;20384;-82
2022/06/06 13:04:00;;;;;;;1.75;0.80;;;17.90;85.30;;;;;;5034405;28;20036;-82
2022/06/06 13:06:52;;;;;;;3.90;0.90;;;18.10;85.00;;;;;;5033769;28;20152;-83
2022/06/06 13:09:49;;;;;;;2.33;0.90;;;18.30;84.90;;;;;;5034106;28;20021;-83
2022/06/06 13:12:43;;;;;;;4.95;1.02;;;18.40;84.30;;;;;;5033662;28;20029;-83
2022/06/06 13:15:23;;;;;;;3.47;0.90;;;18.50;83.20;;;;;;5030368;28;20105;-82
2022/06/06 13:18:16;;;;;;;5.82;0.90;;;18.40;83.00;;;;;;5020863;28;20151;-84
2022/06/06 13:21:01;;;;;;;3.08;0.80;;;18.30;82.60;;;;;;5013830;28;20072;-82
2022/06/06 13:23:40;;;;;;;3.30;0.98;;;18.30;82.80;;;;;;5029198;28;20035;-83
2022/06/06 13:26:31;;;;;;;3.28;0.88;;;18.30;82.00;;;;;;5015841;28;20477;-84
2022/06/06 13:28:57;;;;;;;2.78;0.75;;;18.50;81.90;;;;;;5033916;28;20132;-82
2022/06/06 13:31:29;;;;;;;2.08;0.60;;;18.60;81.50;;;;;;5015765;28;20045;-82
2022/06/06 13:33:57;;;;;;;2.53;0.68;;;18.70;80.70;;;;;;5015668;28;20044;-83
2022/06/06 13:36:47;;;;;;;3.90;0.90;;;18.80;80.00;;;;;;5015623;28;20021;-82
2022/06/06 13:39:50;;;;;;;1.98;0.70;;;18.90;79.30;;;;;;5015703;28;20052;-82
2022/06/06 13:43:03;;;;;;;4.28;0.70;;;18.90;79.50;;;;;;5033483;28;20021;-83
2022/06/06 13:45:58;;;;;;;2.88;0.80;;;19.00;78.90;;;;;;5012024;28;20038;-83
2022/06/06 13:48:44;;;;;;;2.33;0.60;;;19.00;78.60;;;;;;5015716;28;20087;-85
2022/06/06 13:51:28;;;;;;;2.55;0.70;;;18.90;77.50;;;;;;5015895;28;20026;-82
2022/06/06 13:53:53;;;;;;;2.88;0.90;;;18.90;77.70;;;;;;5033961;28;20128;-83
2022/06/06 13:56:39;;;;;;;4.93;0.60;;;18.80;78.10;;;;;;5033382;28;20053;-82
2022/06/06 13:59:31;;;;;;;3.22;0.55;;;18.70;78.30;;;;;;5015236;28;20489;-85
2022/06/06 14:02:06;;;;;;;2.85;0.60;;;18.70;78.30;;;;;;5015618;28;20018;-84
2022/06/06 14:04:59;;;;;;;2.15;0.60;;;18.70;78.60;;;;;;5033187;28;20034;-84
2022/06/06 14:07:43;;;;;;;4.37;0.77;;;18.70;78.80;;;;;;5019059;28;20033;-84
2022/06/06 14:10:13;;;;;;;2.20;0.80;;;18.60;78.90;;;;;;5019138;28;20276;-81
2022/06/06 14:13:02;;;;;;;3.80;1.17;;;18.60;79.90;;;;;;5036720;28;20025;-82
2022/06/06 14:15:28;;;;;;;6.72;1.95;;;18.40;84.20;;;;;;5036709;28;20481;-81